首页
METAR-TAF:

METAR-TAF

机场 :

Mosinee, 威斯康辛州, 美国

纬度: 44-47N, 经度: 089-40W, 海拔: 389米

当前天气观测

该预报发布于13分钟前的20:47 UTC
风速10节,风向西,有时为17节阵风
温度 22°C
湿度 46%
气压 1015 hPa
能見度: 16.1公里
散云层高于5000英尺
多云层高于6000英尺

METAR: KCWA 232047Z 27010G17KT 10SM SCT050 BKN060 22/10 A2996

时间: 16:00 (21:00 UTC)

预报

该预报发布于3小时和37分钟前的17:23 UTC
预报有效从23日的 18点(UTC)到 24日的 18点(UTC)
风速10节,风向西转西北,有时为17节阵风
能見度: 10公里
散云层高于2500英尺
从 23日的 1900点(UTC)
风速10节,风向西,有时为17节阵风
能見度: 10公里
散云层高于3500英尺
从 23日的 2200点(UTC)
风速6节,风向西
能見度: 10公里
少量云层高于4500英尺
从 24日的 0200点(UTC)
风速3节,风向西转西南
能見度: 10公里
天空无云
短暂存在
从 24日的 09点(UTC)到 24日的 12点(UTC)
能見度: 6.4公里
轻雾
从 24日的 1500点(UTC)
风速8节,风向
能見度: 10公里
散云层高于3000英尺

TAF: KCWA 231723Z 2318/2418 29010G17KT P6SM SCT025 FM231900 28010G17KT P6SM SCT035 FM232200 27006KT P6SM FEW045 FM240200 25003KT P6SM SKC TEMPO 2409/2412 4SM BR FM241500 19008KT P6SM SCT030

超过4000个机场的气象观测和天气预报(METAR&TAF报告)。

可查询的气象台以黄色和红色小点在地图上表示。

将鼠标移到小点上方,可查看气象台名称。

然后点击查看天气观测和预报。

如需切换地图:点击带黑十字的绿色按钮放大地图;点击带横线的绿色按钮缩小地图;或者点击绿色箭头查看邻近地区的地图。


METAR-TAF: